| time (UTC) | temp F | wind direction | speed MPH | gust MPH | rain 1hr in | rain 24hr in | rain mn in | humidity % | barometer mb |
| 20260509055454 | 48 | 222 | 0.0 | 0.0 | 0.00 | 0.00 | 0.00 | 58 | 1000.3 |
| 20260509054951 | 48 | 214 | 0.0 | 0.0 | 0.00 | 0.00 | 0.00 | 59 | 1000.4 |
| 20260509054448 | 48 | 210 | 0.0 | 0.0 | 0.00 | 0.00 | 0.00 | 58 | 1000.6 |
| 20260509053946 | 49 | 202 | 0.0 | 0.0 | 0.00 | 0.00 | 0.00 | 55 | 1000.7 |
| 20260509053444 | 49 | 209 | 0.0 | 0.0 | 0.00 | 0.00 | 0.00 | 58 | 1000.9 |
| 20260509052941 | 49 | 202 | 1.0 | 1.0 | 0.00 | 0.00 | 0.00 | 53 | 1000.7 |
| 20260509052438 | 49 | 195 | 0.0 | 0.0 | 0.00 | 0.00 | 0.00 | 51 | 1001.1 |
| 20260509051936 | 48 | 211 | 0.0 | 0.0 | 0.00 | 0.00 | 0.00 | 51 | 1001.1 |
| 20260509051434 | 48 | 216 | 0.0 | 0.0 | 0.00 | 0.00 | 0.00 | 56 | 1001.2 |
| 20260509050931 | 48 | 212 | 0.0 | 0.0 | 0.00 | 0.00 | 0.00 | 56 | 1001.4 |
| 20260509050427 | 48 | 213 | 0.0 | 1.0 | 0.00 | 0.00 | 0.00 | 54 | 1001.5 |
| 20260509045924 | 49 | 216 | 0.0 | 0.0 | 0.00 | 0.00 | 0.00 | 57 | 1001.2 |
| 20260509045421 | 50 | 200 | 1.0 | 2.0 | 0.00 | 0.00 | 0.00 | 50 | 1001.2 |
| 20260509044918 | 50 | 203 | 1.0 | 1.0 | 0.00 | 0.00 | 0.00 | 48 | 1001.3 |
| 20260509044416 | 50 | 204 | 0.0 | 0.0 | 0.00 | 0.00 | 0.00 | 51 | 1001.6 |
| 20260509043913 | 50 | 203 | 0.0 | 0.0 | 0.00 | 0.00 | 0.00 | 52 | 1001.5 |
| 20260509043408 | 51 | 202 | 0.0 | 0.0 | 0.00 | 0.00 | 0.00 | 51 | 1001.6 |
| 20260509042904 | 52 | 202 | 0.0 | 0.0 | 0.00 | 0.00 | 0.00 | 46 | 1001.6 |
| 20260509042401 | 52 | 217 | 1.0 | 1.0 | 0.00 | 0.00 | 0.00 | 46 | 1001.5 |
| 20260509041857 | 54 | 209 | 0.0 | 0.0 | 0.00 | 0.00 | 0.00 | 47 | 1001.5 |
| 20260509041354 | 56 | 213 | 0.0 | 0.0 | 0.00 | 0.00 | 0.00 | 40 | 1001.6 |
| 20260509040853 | 56 | 225 | 0.0 | 0.0 | 0.00 | 0.00 | 0.00 | 37 | 1001.6 |
| 20260509040350 | 56 | 217 | 1.0 | 1.0 | 0.00 | 0.00 | 0.00 | 36 | 1001.7 |
| 20260509035847 | 56 | 228 | 1.0 | 1.0 | 0.00 | 0.00 | 0.00 | 36 | 1001.6 |
| 20260509035344 | 57 | 269 | 1.0 | 1.0 | 0.00 | 0.00 | 0.00 | 36 | 1001.7 |
| 20260509034840 | 57 | 255 | 1.0 | 1.0 | 0.00 | 0.00 | 0.00 | 35 | 1001.8 |
| 20260509034338 | 57 | 254 | 1.0 | 1.0 | 0.00 | 0.00 | 0.00 | 35 | 1002.0 |
| 20260509033835 | 57 | 272 | 1.0 | 2.0 | 0.00 | 0.00 | 0.00 | 34 | 1001.7 |
| 20260509033332 | 58 | 265 | 2.0 | 2.0 | 0.00 | 0.00 | 0.00 | 33 | 1001.8 |
| 20260509032829 | 58 | 272 | 3.0 | 3.0 | 0.00 | 0.00 | 0.00 | 33 | 1001.6 |
| 20260509032326 | 58 | 297 | 2.0 | 2.0 | 0.00 | 0.00 | 0.00 | 33 | 1001.9 |
| 20260509031824 | 59 | 306 | 3.0 | 3.0 | 0.00 | 0.00 | 0.00 | 33 | 1001.8 |
| 20260509031321 | 59 | 319 | 3.0 | 3.0 | 0.00 | 0.00 | 0.00 | 33 | 1001.6 |
| 20260509030819 | 59 | 266 | 2.0 | 2.0 | 0.00 | 0.00 | 0.00 | 33 | 1001.6 |
| 20260509030316 | 59 | 314 | 3.0 | 3.0 | 0.00 | 0.00 | 0.00 | 33 | 1001.6 |
| 20260509025813 | 59 | 326 | 2.0 | 2.0 | 0.00 | 0.00 | 0.00 | 33 | 1001.7 |
| 20260509025308 | 59 | 317 | 4.0 | 6.0 | 0.00 | 0.00 | 0.00 | 33 | 1001.5 |
| 20260509024804 | 59 | 227 | 1.0 | 1.0 | 0.00 | 0.00 | 0.00 | 34 | 1001.3 |
| 20260509024300 | 60 | 305 | 3.0 | 3.0 | 0.00 | 0.00 | 0.00 | 33 | 1001.5 |
| 20260509023757 | 60 | 257 | 3.0 | 3.0 | 0.00 | 0.00 | 0.00 | 33 | 1001.4 |
| 20260509023255 | 60 | 247 | 4.0 | 5.0 | 0.00 | 0.00 | 0.00 | 32 | 1001.4 |
| 20260509022750 | 61 | 337 | 3.0 | 5.0 | 0.00 | 0.00 | 0.00 | 32 | 1001.4 |
| 20260509022249 | 61 | 316 | 4.0 | 5.0 | 0.00 | 0.00 | 0.00 | 33 | 1001.3 |
| 20260509021745 | 62 | 333 | 5.0 | 7.0 | 0.00 | 0.00 | 0.00 | 33 | 1001.2 |
| 20260509021242 | 62 | 315 | 5.0 | 6.0 | 0.00 | 0.00 | 0.00 | 33 | 1001.1 |
| 20260509020740 | 62 | 307 | 8.0 | 9.0 | 0.00 | 0.00 | 0.00 | 34 | 1000.8 |
| 20260509020237 | 62 | 1 | 9.0 | 11.0 | 0.00 | 0.00 | 0.00 | 34 | 1000.8 |
| 20260509015735 | 62 | 303 | 6.0 | 7.0 | 0.00 | 0.00 | 0.00 | 33 | 1000.7 |
| 20260509015233 | 63 | 25 | 8.0 | 9.0 | 0.00 | 0.00 | 0.00 | 33 | 1000.6 |
| 20260509014729 | 63 | 342 | 4.0 | 5.0 | 0.00 | 0.00 | 0.00 | 33 | 1000.6 |
| 20260509014227 | 63 | 301 | 4.0 | 5.0 | 0.00 | 0.00 | 0.00 | 33 | 1000.2 |
| 20260509013723 | 64 | 300 | 3.0 | 5.0 | 0.00 | 0.00 | 0.00 | 33 | 1000.3 |
| 20260509013219 | 64 | 292 | 4.0 | 6.0 | 0.00 | 0.00 | 0.00 | 33 | 1000.2 |
| 20260509012715 | 64 | 283 | 3.0 | 3.0 | 0.00 | 0.00 | 0.00 | 32 | 1000.1 |
| 20260509012212 | 65 | 303 | 4.0 | 5.0 | 0.00 | 0.00 | 0.00 | 31 | 1000.1 |
| 20260509011710 | 65 | 314 | 3.0 | 5.0 | 0.00 | 0.00 | 0.00 | 30 | 1000.0 |
| 20260509011207 | 66 | 282 | 6.0 | 7.0 | 0.00 | 0.00 | 0.00 | 29 | 999.9 |
| 20260509010705 | 66 | 278 | 6.0 | 6.0 | 0.00 | 0.00 | 0.00 | 29 | 1000.0 |
| 20260509010201 | 66 | 307 | 6.0 | 8.0 | 0.00 | 0.00 | 0.00 | 28 | 999.8 |
| 20260509005659 | 66 | 338 | 4.0 | 5.0 | 0.00 | 0.00 | 0.00 | 28 | 999.6 |
| 20260509005155 | 67 | 332 | 3.0 | 3.0 | 0.00 | 0.00 | 0.00 | 28 | 999.7 |
| 20260509004651 | 67 | 313 | 5.0 | 6.0 | 0.00 | 0.00 | 0.00 | 26 | 999.7 |
| 20260509004148 | 67 | 332 | 6.0 | 7.0 | 0.00 | 0.00 | 0.00 | 26 | 999.7 |
| 20260509003647 | 67 | 306 | 5.0 | 7.0 | 0.00 | 0.00 | 0.00 | 26 | 999.6 |
| 20260509003143 | 68 | 294 | 5.0 | 5.0 | 0.00 | 0.00 | 0.00 | 26 | 999.8 |
| 20260509002641 | 68 | 275 | 5.0 | 6.0 | 0.00 | 0.00 | 0.00 | 26 | 999.7 |
| 20260509002138 | 68 | 335 | 10.0 | 13.0 | 0.00 | 0.00 | 0.00 | 25 | 999.5 |
| 20260509001636 | 68 | 324 | 6.0 | 7.0 | 0.00 | 0.00 | 0.00 | 25 | 999.6 |
| 20260509001131 | 68 | 346 | 5.0 | 6.0 | 0.00 | 0.00 | 0.00 | 25 | 999.5 |
| 20260509000630 | 69 | 275 | 5.0 | 6.0 | 0.00 | 0.00 | 0.00 | 25 | 999.6 |
| 20260509000126 | 69 | 4 | 6.0 | 7.0 | 0.00 | 0.00 | 0.00 | 25 | 999.5 |
| 20260508235623 | 69 | 277 | 4.0 | 5.0 | 0.00 | 0.00 | 0.00 | 25 | 999.5 |
| 20260508235120 | 69 | 310 | 5.0 | 8.0 | 0.00 | 0.00 | 0.00 | 25 | 999.6 |
| 20260508234617 | 69 | 282 | 6.0 | 8.0 | 0.00 | 0.00 | 0.00 | 25 | 999.6 |
| 20260508234113 | 69 | 315 | 7.0 | 8.0 | 0.00 | 0.00 | 0.00 | 25 | 999.5 |
| 20260508233613 | 69 | 281 | 6.0 | 7.0 | 0.00 | 0.00 | 0.00 | 26 | 999.6 |
| 20260508233110 | 69 | 308 | 7.0 | 8.0 | 0.00 | 0.00 | 0.00 | 26 | 999.7 |
| 20260508232607 | 69 | 269 | 5.0 | 6.0 | 0.00 | 0.00 | 0.00 | 26 | 999.5 |
| 20260508232103 | 69 | 278 | 4.0 | 7.0 | 0.00 | 0.00 | 0.00 | 26 | 999.6 |
| 20260508231602 | 70 | 280 | 5.0 | 8.0 | 0.00 | 0.00 | 0.00 | 26 | 999.8 |
| 20260508231058 | 70 | 277 | 3.0 | 6.0 | 0.00 | 0.00 | 0.00 | 27 | 999.7 |
| 20260508230554 | 70 | 256 | 5.0 | 7.0 | 0.00 | 0.00 | 0.00 | 26 | 999.6 |
| 20260508230051 | 69 | 299 | 4.0 | 5.0 | 0.00 | 0.00 | 0.00 | 27 | 999.6 |
| 20260508225549 | 70 | 309 | 5.0 | 6.0 | 0.00 | 0.00 | 0.00 | 27 | 999.6 |
| 20260508225045 | 69 | 274 | 3.0 | 3.0 | 0.00 | 0.00 | 0.00 | 28 | 999.6 |
| 20260508224543 | 69 | 217 | 3.0 | 3.0 | 0.00 | 0.00 | 0.00 | 27 | 999.7 |
| 20260508224040 | 69 | 272 | 5.0 | 6.0 | 0.00 | 0.00 | 0.00 | 27 | 999.6 |
| 20260508223538 | 69 | 317 | 6.0 | 8.0 | 0.00 | 0.00 | 0.00 | 26 | 999.6 |
| 20260508223035 | 69 | 301 | 5.0 | 6.0 | 0.00 | 0.00 | 0.00 | 27 | 999.5 |
| 20260508222533 | 70 | 306 | 5.0 | 7.0 | 0.00 | 0.00 | 0.00 | 27 | 999.8 |
| 20260508222029 | 69 | 311 | 3.0 | 3.0 | 0.00 | 0.00 | 0.00 | 26 | 999.7 |
| 20260508221526 | 70 | 219 | 3.0 | 3.0 | 0.00 | 0.00 | 0.00 | 26 | 999.6 |
| 20260508221021 | 70 | 292 | 5.0 | 6.0 | 0.00 | 0.00 | 0.00 | 26 | 999.7 |
| 20260508220518 | 70 | 292 | 2.0 | 2.0 | 0.00 | 0.00 | 0.00 | 27 | 999.6 |
| 20260508220015 | 69 | 304 | 6.0 | 8.0 | 0.00 | 0.00 | 0.00 | 26 | 1000.0 |
| 20260508215512 | 69 | 332 | 3.0 | 3.0 | 0.00 | 0.00 | 0.00 | 26 | 1000.1 |
| 20260508215008 | 69 | 317 | 6.0 | 8.0 | 0.00 | 0.00 | 0.00 | 26 | 1000.0 |
| 20260508214506 | 69 | 320 | 3.0 | 3.0 | 0.00 | 0.00 | 0.00 | 25 | 1000.0 |
| 20260508214002 | 69 | 325 | 7.0 | 9.0 | 0.00 | 0.00 | 0.00 | 25 | 1000.1 |
| 20260508213500 | 70 | 299 | 7.0 | 7.0 | 0.00 | 0.00 | 0.00 | 25 | 1000.1 |
| 20260508212954 | 69 | 247 | 3.0 | 3.0 | 0.00 | 0.00 | 0.00 | 26 | 1000.2 |
| 20260508212452 | 68 | 294 | 4.0 | 5.0 | 0.00 | 0.00 | 0.00 | 26 | 1000.3 |
| 20260508211948 | 69 | 353 | 6.0 | 8.0 | 0.00 | 0.00 | 0.00 | 26 | 1000.3 |
| 20260508211443 | 70 | 283 | 3.0 | 3.0 | 0.00 | 0.00 | 0.00 | 27 | 1000.4 |
| 20260508210940 | 70 | 260 | 5.0 | 7.0 | 0.00 | 0.00 | 0.00 | 25 | 1000.4 |
| 20260508210437 | 69 | 282 | 5.0 | 8.0 | 0.00 | 0.00 | 0.00 | 27 | 1000.6 |
| 20260508205933 | 69 | 279 | 4.0 | 5.0 | 0.00 | 0.00 | 0.00 | 26 | 1000.8 |
| 20260508205431 | 69 | 296 | 6.0 | 7.0 | 0.00 | 0.00 | 0.00 | 25 | 1000.8 |
| 20260508204927 | 70 | 274 | 8.0 | 10.0 | 0.00 | 0.00 | 0.00 | 25 | 1000.9 |
| 20260508204424 | 69 | 317 | 5.0 | 6.0 | 0.00 | 0.00 | 0.00 | 25 | 1000.9 |
| 20260508203919 | 69 | 289 | 8.0 | 10.0 | 0.00 | 0.00 | 0.00 | 25 | 1001.0 |
| 20260508203416 | 69 | 286 | 5.0 | 6.0 | 0.00 | 0.00 | 0.00 | 25 | 1001.3 |
| 20260508202912 | 69 | 301 | 7.0 | 8.0 | 0.00 | 0.00 | 0.00 | 26 | 1001.1 |
| 20260508202410 | 69 | 234 | 5.0 | 6.0 | 0.00 | 0.00 | 0.00 | 27 | 1001.2 |
| 20260508201906 | 68 | 286 | 4.0 | 5.0 | 0.00 | 0.00 | 0.00 | 26 | 1001.4 |
| 20260508201403 | 69 | 276 | 4.0 | 5.0 | 0.00 | 0.00 | 0.00 | 26 | 1001.6 |
| 20260508200859 | 68 | 279 | 3.0 | 5.0 | 0.00 | 0.00 | 0.00 | 25 | 1001.4 |
| 20260508200356 | 68 | 337 | 7.0 | 8.0 | 0.00 | 0.00 | 0.00 | 26 | 1001.6 |
| 20260508195852 | 68 | 273 | 6.0 | 9.0 | 0.00 | 0.00 | 0.00 | 26 | 1001.7 |
| 20260508195349 | 68 | 274 | 7.0 | 8.0 | 0.00 | 0.00 | 0.00 | 25 | 1001.8 |
| 20260508194845 | 68 | 299 | 3.0 | 5.0 | 0.00 | 0.00 | 0.00 | 28 | 1001.9 |
| 20260508194342 | 68 | 348 | 6.0 | 7.0 | 0.00 | 0.00 | 0.00 | 26 | 1001.9 |
| 20260508193839 | 68 | 254 | 4.0 | 5.0 | 0.00 | 0.00 | 0.00 | 25 | 1002.1 |
| 20260508193336 | 67 | 261 | 4.0 | 5.0 | 0.00 | 0.00 | 0.00 | 27 | 1002.0 |
| 20260508192832 | 67 | 290 | 3.0 | 5.0 | 0.00 | 0.00 | 0.00 | 26 | 1002.1 |
| 20260508192330 | 67 | 296 | 3.0 | 3.0 | 0.00 | 0.00 | 0.00 | 27 | 1002.2 |
| 20260508191827 | 68 | 226 | 5.0 | 6.0 | 0.00 | 0.00 | 0.00 | 27 | 1002.2 |
| 20260508191324 | 68 | 284 | 4.0 | 5.0 | 0.00 | 0.00 | 0.00 | 27 | 1002.2 |
| 20260508190821 | 67 | 357 | 3.0 | 3.0 | 0.00 | 0.00 | 0.00 | 26 | 1002.6 |
| 20260508190317 | 67 | 309 | 4.0 | 5.0 | 0.00 | 0.00 | 0.00 | 26 | 1002.4 |
| 20260508185813 | 67 | 24 | 9.0 | 11.0 | 0.00 | 0.00 | 0.00 | 25 | 1002.7 |
| 20260508185311 | 66 | 7 | 4.0 | 5.0 | 0.00 | 0.00 | 0.00 | 27 | 1002.7 |
| 20260508184808 | 66 | 319 | 4.0 | 5.0 | 0.00 | 0.00 | 0.00 | 26 | 1002.9 |
| 20260508184305 | 66 | 280 | 5.0 | 6.0 | 0.00 | 0.00 | 0.00 | 27 | 1002.8 |
| 20260508183803 | 64 | 290 | 4.0 | 5.0 | 0.00 | 0.00 | 0.00 | 27 | 1003.0 |
| 20260508183259 | 65 | 302 | 4.0 | 5.0 | 0.00 | 0.00 | 0.00 | 28 | 1003.0 |
| 20260508182755 | 64 | 200 | 2.0 | 3.0 | 0.00 | 0.00 | 0.00 | 28 | 1003.0 |
| 20260508182252 | 65 | 277 | 6.0 | 7.0 | 0.00 | 0.00 | 0.00 | 27 | 1003.1 |
| 20260508181747 | 65 | 282 | 5.0 | 6.0 | 0.00 | 0.00 | 0.00 | 28 | 1003.1 |
| 20260508181244 | 65 | 319 | 4.0 | 5.0 | 0.00 | 0.00 | 0.00 | 26 | 1003.2 |
| 20260508180741 | 64 | 332 | 6.0 | 7.0 | 0.00 | 0.00 | 0.00 | 27 | 1003.4 |
| 20260508180238 | 64 | 252 | 5.0 | 6.0 | 0.00 | 0.00 | 0.00 | 27 | 1003.4 |
| 20260508175734 | 65 | 294 | 4.0 | 5.0 | 0.00 | 0.00 | 0.00 | 27 | 1003.3 |
| 20260508175231 | 65 | 235 | 2.0 | 2.0 | 0.00 | 0.00 | 0.00 | 27 | 1003.3 |
| 20260508174729 | 66 | 236 | 3.0 | 3.0 | 0.00 | 0.00 | 0.00 | 26 | 1003.6 |
| 20260508174226 | 64 | 334 | 3.0 | 5.0 | 0.00 | 0.00 | 0.00 | 30 | 1003.6 |
| 20260508173722 | 65 | 327 | 6.0 | 7.0 | 0.00 | 0.00 | 0.00 | 27 | 1003.7 |
| 20260508173218 | 64 | 254 | 2.0 | 3.0 | 0.00 | 0.00 | 0.00 | 27 | 1004.0 |
| 20260508172715 | 65 | 307 | 4.0 | 5.0 | 0.00 | 0.00 | 0.00 | 29 | 1004.0 |
| 20260508172212 | 64 | 280 | 3.0 | 3.0 | 0.00 | 0.00 | 0.00 | 28 | 1004.1 |
| 20260508171709 | 64 | 246 | 1.0 | 1.0 | 0.00 | 0.00 | 0.00 | 28 | 1004.0 |
| 20260508171205 | 64 | 286 | 5.0 | 6.0 | 0.00 | 0.00 | 0.00 | 30 | 1004.3 |
| 20260508170702 | 64 | 321 | 3.0 | 3.0 | 0.00 | 0.00 | 0.00 | 29 | 1004.3 |
| 20260508170200 | 63 | 216 | 2.0 | 3.0 | 0.00 | 0.00 | 0.00 | 31 | 1004.3 |
| 20260508165657 | 63 | 295 | 4.0 | 5.0 | 0.00 | 0.00 | 0.00 | 29 | 1004.3 |
| 20260508165154 | 62 | 281 | 5.0 | 7.0 | 0.00 | 0.00 | 0.00 | 29 | 1004.5 |
| 20260508164650 | 62 | 276 | 5.0 | 6.0 | 0.00 | 0.00 | 0.00 | 29 | 1004.6 |
| 20260508164147 | 62 | 17 | 5.0 | 6.0 | 0.00 | 0.00 | 0.00 | 31 | 1004.6 |
| 20260508163645 | 62 | 283 | 4.0 | 5.0 | 0.00 | 0.00 | 0.00 | 33 | 1004.7 |
| 20260508163142 | 61 | 339 | 3.0 | 3.0 | 0.00 | 0.00 | 0.00 | 34 | 1004.8 |
| 20260508162637 | 61 | 268 | 4.0 | 5.0 | 0.00 | 0.00 | 0.00 | 32 | 1004.8 |
| 20260508162135 | 60 | 256 | 4.0 | 5.0 | 0.00 | 0.00 | 0.00 | 33 | 1004.9 |
| 20260508161632 | 60 | 268 | 2.0 | 2.0 | 0.00 | 0.00 | 0.00 | 33 | 1004.9 |
| 20260508161129 | 60 | 297 | 6.0 | 7.0 | 0.00 | 0.00 | 0.00 | 34 | 1005.0 |
| 20260508160628 | 60 | 319 | 3.0 | 5.0 | 0.00 | 0.00 | 0.00 | 34 | 1005.0 |
| 20260508160125 | 59 | 240 | 2.0 | 2.0 | 0.00 | 0.00 | 0.00 | 33 | 1005.0 |
| 20260508155621 | 59 | 228 | 4.0 | 5.0 | 0.00 | 0.00 | 0.00 | 34 | 1004.9 |
| 20260508155118 | 59 | 237 | 1.0 | 2.0 | 0.00 | 0.00 | 0.00 | 36 | 1005.2 |
| 20260508154615 | 58 | 263 | 5.0 | 6.0 | 0.00 | 0.00 | 0.00 | 35 | 1005.1 |
| 20260508154112 | 57 | 244 | 3.0 | 3.0 | 0.00 | 0.00 | 0.00 | 36 | 1005.2 |
| 20260508153609 | 57 | 265 | 4.0 | 5.0 | 0.00 | 0.00 | 0.00 | 36 | 1005.3 |
| 20260508153106 | 57 | 243 | 3.0 | 3.0 | 0.00 | 0.00 | 0.00 | 37 | 1005.3 |
| 20260508152603 | 57 | 264 | 3.0 | 3.0 | 0.00 | 0.00 | 0.00 | 38 | 1005.4 |
| 20260508152058 | 57 | 266 | 2.0 | 2.0 | 0.00 | 0.00 | 0.00 | 40 | 1005.4 |
| 20260508151555 | 56 | 240 | 2.0 | 2.0 | 0.00 | 0.00 | 0.00 | 40 | 1005.4 |
| 20260508151052 | 55 | 282 | 4.0 | 5.0 | 0.00 | 0.00 | 0.00 | 40 | 1005.4 |
| 20260508150549 | 55 | 264 | 3.0 | 3.0 | 0.00 | 0.00 | 0.00 | 41 | 1005.6 |
| 20260508150045 | 55 | 281 | 3.0 | 3.0 | 0.00 | 0.00 | 0.00 | 40 | 1005.6 |
| 20260508145541 | 55 | 304 | 2.0 | 2.0 | 0.00 | 0.00 | 0.00 | 43 | 1005.8 |
| 20260508145038 | 54 | 224 | 1.0 | 1.0 | 0.00 | 0.00 | 0.00 | 42 | 1005.8 |
| 20260508144536 | 54 | 222 | 0.0 | 0.0 | 0.00 | 0.00 | 0.00 | 43 | 1005.7 |
| 20260508144033 | 54 | 225 | 2.0 | 2.0 | 0.00 | 0.00 | 0.00 | 42 | 1005.7 |
| 20260508143531 | 53 | 229 | 1.0 | 1.0 | 0.00 | 0.00 | 0.00 | 43 | 1005.8 |
| 20260508143027 | 53 | 269 | 3.0 | 3.0 | 0.00 | 0.00 | 0.00 | 43 | 1006.0 |
| 20260508142524 | 53 | 220 | 2.0 | 2.0 | 0.00 | 0.00 | 0.00 | 42 | 1006.0 |
| 20260508142020 | 53 | 228 | 1.0 | 2.0 | 0.00 | 0.00 | 0.00 | 43 | 1006.0 |
| 20260508141517 | 53 | 221 | 0.0 | 1.0 | 0.00 | 0.00 | 0.00 | 44 | 1006.3 |
| 20260508141015 | 53 | 240 | 2.0 | 2.0 | 0.00 | 0.00 | 0.00 | 45 | 1006.0 |
| 20260508140512 | 51 | 237 | 1.0 | 1.0 | 0.00 | 0.00 | 0.00 | 45 | 1006.3 |
| 20260508140008 | 50 | 225 | 0.0 | 0.0 | 0.00 | 0.00 | 0.00 | 50 | 1006.2 |
| 20260508135504 | 50 | 243 | 0.0 | 1.0 | 0.00 | 0.00 | 0.00 | 53 | 1006.2 |
| 20260508135000 | 49 | 202 | 0.0 | 0.0 | 0.00 | 0.00 | 0.00 | 52 | 1006.3 |
| 20260508134457 | 49 | 180 | 0.0 | 0.0 | 0.00 | 0.00 | 0.00 | 54 | 1006.3 |
| 20260508133954 | 48 | 217 | 0.0 | 0.0 | 0.00 | 0.00 | 0.00 | 54 | 1006.2 |
| 20260508133451 | 47 | 174 | 0.0 | 0.0 | 0.00 | 0.00 | 0.00 | 56 | 1006.4 |
| 20260508132948 | 47 | 152 | 0.0 | 0.0 | 0.00 | 0.00 | 0.00 | 61 | 1006.4 |
| 20260508132446 | 47 | 139 | 0.0 | 1.0 | 0.00 | 0.00 | 0.00 | 59 | 1006.4 |
| 20260508131942 | 48 | 58 | 1.0 | 1.0 | 0.00 | 0.00 | 0.00 | 55 | 1006.5 |
| 20260508131438 | 48 | 274 | 1.0 | 2.0 | 0.00 | 0.00 | 0.00 | 56 | 1006.5 |
| 20260508130935 | 47 | 158 | 1.0 | 1.0 | 0.00 | 0.00 | 0.00 | 58 | 1006.5 |
| 20260508130432 | 47 | 212 | 0.0 | 0.0 | 0.00 | 0.00 | 0.00 | 58 | 1006.4 |
| 20260508125927 | 46 | 226 | 0.0 | 0.0 | 0.00 | 0.00 | 0.00 | 56 | 1006.6 |
| 20260508125424 | 45 | 222 | 0.0 | 0.0 | 0.00 | 0.00 | 0.00 | 60 | 1006.6 |
| 20260508124922 | 44 | 149 | 1.0 | 1.0 | 0.00 | 0.00 | 0.00 | 60 | 1006.7 |
| 20260508124419 | 44 | 247 | 0.0 | 1.0 | 0.00 | 0.00 | 0.00 | 59 | 1006.5 |
| 20260508123917 | 43 | 160 | 0.0 | 0.0 | 0.00 | 0.00 | 0.00 | 58 | 1006.5 |
| 20260508123415 | 42 | 174 | 0.0 | 0.0 | 0.00 | 0.00 | 0.00 | 61 | 1006.6 |
| 20260508122911 | 42 | 209 | 0.0 | 0.0 | 0.00 | 0.00 | 0.00 | 60 | 1006.4 |
| 20260508122408 | 42 | 205 | 0.0 | 0.0 | 0.00 | 0.00 | 0.00 | 63 | 1006.6 |
| 20260508121905 | 41 | 218 | 0.0 | 0.0 | 0.00 | 0.00 | 0.00 | 61 | 1006.5 |
| 20260508121404 | 41 | 208 | 0.0 | 0.0 | 0.00 | 0.00 | 0.00 | 59 | 1006.4 |
| 20260508120901 | 41 | 202 | 0.0 | 0.0 | 0.00 | 0.00 | 0.00 | 61 | 1006.4 |
| 20260508120359 | 41 | 207 | 0.0 | 0.0 | 0.00 | 0.00 | 0.00 | 61 | 1006.3 |
| 20260508115856 | 40 | 207 | 0.0 | 0.0 | 0.00 | 0.00 | 0.00 | 60 | 1006.5 |
| 20260508115353 | 40 | 206 | 0.0 | 0.0 | 0.00 | 0.00 | 0.00 | 64 | 1006.5 |
| 20260508114849 | 40 | 208 | 0.0 | 0.0 | 0.00 | 0.00 | 0.00 | 61 | 1006.4 |
| 20260508114347 | 40 | 187 | 0.0 | 0.0 | 0.00 | 0.00 | 0.00 | 60 | 1006.0 |
| 20260508113843 | 39 | 186 | 0.0 | 0.0 | 0.00 | 0.00 | 0.00 | 62 | 1006.2 |
| 20260508113341 | 41 | 188 | 0.0 | 0.0 | 0.00 | 0.00 | 0.00 | 62 | 1006.2 |
| 20260508112838 | 42 | 208 | 0.0 | 0.0 | 0.00 | 0.00 | 0.00 | 57 | 1006.0 |
| 20260508112335 | 42 | 208 | 0.0 | 0.0 | 0.00 | 0.00 | 0.00 | 55 | 1006.0 |
| 20260508111831 | 42 | 207 | 0.0 | 0.0 | 0.00 | 0.00 | 0.00 | 55 | 1006.0 |
| 20260508111328 | 42 | 210 | 0.0 | 0.0 | 0.00 | 0.00 | 0.00 | 55 | 1006.2 |
| 20260508110826 | 42 | 208 | 0.0 | 0.0 | 0.00 | 0.00 | 0.00 | 55 | 1005.9 |
| 20260508110323 | 42 | 214 | 0.0 | 0.0 | 0.00 | 0.00 | 0.00 | 55 | 1006.0 |
| 20260508105823 | 42 | 212 | 0.0 | 0.0 | 0.00 | 0.00 | 0.00 | 55 | 1006.0 |
| 20260508105320 | 42 | 217 | 0.0 | 0.0 | 0.00 | 0.00 | 0.00 | 55 | 1006.3 |
| 20260508104817 | 42 | 208 | 0.0 | 1.0 | 0.00 | 0.00 | 0.00 | 55 | 1006.2 |
| 20260508104313 | 41 | 206 | 0.0 | 0.0 | 0.00 | 0.00 | 0.00 | 55 | 1006.2 |
| 20260508103811 | 41 | 207 | 0.0 | 0.0 | 0.00 | 0.00 | 0.00 | 55 | 1006.2 |
| 20260508103308 | 41 | 211 | 0.0 | 0.0 | 0.00 | 0.00 | 0.00 | 55 | 1006.2 |
| 20260508102806 | 42 | 214 | 0.0 | 0.0 | 0.00 | 0.00 | 0.00 | 55 | 1006.4 |
| 20260508102306 | 42 | 212 | 0.0 | 0.0 | 0.00 | 0.00 | 0.00 | 54 | 1006.2 |
| 20260508101800 | 42 | 207 | 0.0 | 0.0 | 0.00 | 0.00 | 0.00 | 54 | 1006.2 |
| 20260508101258 | 42 | 213 | 0.0 | 0.0 | 0.00 | 0.00 | 0.00 | 54 | 1006.4 |
| 20260508100755 | 42 | 217 | 0.0 | 0.0 | 0.00 | 0.00 | 0.00 | 54 | 1006.5 |
| 20260508100254 | 42 | 209 | 0.0 | 0.0 | 0.00 | 0.00 | 0.00 | 54 | 1006.3 |
| 20260508095749 | 42 | 216 | 0.0 | 0.0 | 0.00 | 0.00 | 0.00 | 54 | 1006.3 |
| 20260508095247 | 42 | 212 | 0.0 | 0.0 | 0.00 | 0.00 | 0.00 | 54 | 1006.5 |
| 20260508094743 | 42 | 218 | 0.0 | 0.0 | 0.00 | 0.00 | 0.00 | 53 | 1006.5 |
| 20260508094241 | 43 | 212 | 0.0 | 0.0 | 0.00 | 0.00 | 0.00 | 53 | 1006.4 |
| 20260508093737 | 43 | 216 | 0.0 | 0.0 | 0.00 | 0.00 | 0.00 | 52 | 1006.4 |
| 20260508093235 | 43 | 213 | 0.0 | 0.0 | 0.00 | 0.00 | 0.00 | 52 | 1006.6 |
| 20260508092732 | 43 | 214 | 0.0 | 1.0 | 0.00 | 0.00 | 0.00 | 52 | 1006.4 |
| 20260508092230 | 43 | 212 | 0.0 | 0.0 | 0.00 | 0.00 | 0.00 | 52 | 1006.4 |
| 20260508091728 | 43 | 217 | 0.0 | 1.0 | 0.00 | 0.00 | 0.00 | 52 | 1006.4 |
| 20260508091224 | 43 | 217 | 0.0 | 0.0 | 0.00 | 0.00 | 0.00 | 51 | 1006.4 |
| 20260508090722 | 43 | 219 | 0.0 | 1.0 | 0.00 | 0.00 | 0.00 | 51 | 1006.5 |
| 20260508090220 | 43 | 222 | 0.0 | 0.0 | 0.00 | 0.00 | 0.00 | 51 | 1006.6 |
| 20260508085715 | 43 | 217 | 0.0 | 0.0 | 0.00 | 0.00 | 0.00 | 51 | 1006.6 |
| 20260508085213 | 44 | 218 | 0.0 | 0.0 | 0.00 | 0.00 | 0.00 | 51 | 1006.4 |
| 20260508084709 | 44 | 217 | 0.0 | 0.0 | 0.00 | 0.00 | 0.00 | 51 | 1006.5 |
| 20260508084207 | 44 | 219 | 0.0 | 0.0 | 0.00 | 0.00 | 0.00 | 51 | 1006.6 |
| 20260508083704 | 44 | 221 | 1.0 | 1.0 | 0.00 | 0.00 | 0.00 | 51 | 1006.5 |
| 20260508083201 | 44 | 226 | 0.0 | 1.0 | 0.00 | 0.00 | 0.00 | 51 | 1006.7 |
| 20260508082656 | 44 | 208 | 0.0 | 0.0 | 0.00 | 0.00 | 0.00 | 52 | 1006.6 |
| 20260508082153 | 44 | 218 | 0.0 | 0.0 | 0.00 | 0.00 | 0.00 | 53 | 1006.6 |
| 20260508081651 | 44 | 217 | 0.0 | 0.0 | 0.00 | 0.00 | 0.00 | 53 | 1006.5 |
| 20260508081147 | 44 | 217 | 0.0 | 0.0 | 0.00 | 0.00 | 0.00 | 53 | 1006.5 |
| 20260508080645 | 44 | 225 | 1.0 | 1.0 | 0.00 | 0.00 | 0.00 | 53 | 1006.5 |
| 20260508080143 | 44 | 216 | 0.0 | 0.0 | 0.00 | 0.00 | 0.00 | 53 | 1006.7 |
| 20260508075639 | 44 | 216 | 0.0 | 0.0 | 0.00 | 0.00 | 0.00 | 53 | 1006.6 |
| 20260508075136 | 44 | 218 | 0.0 | 0.0 | 0.00 | 0.00 | 0.00 | 54 | 1006.6 |
| 20260508074634 | 44 | 217 | 1.0 | 1.0 | 0.00 | 0.00 | 0.00 | 53 | 1006.7 |
| 20260508074131 | 44 | 219 | 0.0 | 1.0 | 0.00 | 0.00 | 0.00 | 53 | 1006.7 |
| 20260508073628 | 44 | 216 | 0.0 | 0.0 | 0.00 | 0.00 | 0.00 | 53 | 1006.8 |
| 20260508073126 | 44 | 221 | 0.0 | 0.0 | 0.00 | 0.00 | 0.00 | 54 | 1006.8 |
| 20260508072621 | 45 | 218 | 0.0 | 0.0 | 0.00 | 0.00 | 0.00 | 54 | 1006.8 |
| 20260508072118 | 44 | 211 | 1.0 | 1.0 | 0.00 | 0.00 | 0.00 | 55 | 1006.6 |
| 20260508071616 | 44 | 217 | 0.0 | 0.0 | 0.00 | 0.00 | 0.00 | 55 | 1006.9 |
| 20260508071114 | 44 | 220 | 0.0 | 0.0 | 0.00 | 0.00 | 0.00 | 56 | 1007.0 |
| 20260508070611 | 44 | 220 | 0.0 | 1.0 | 0.00 | 0.00 | 0.00 | 55 | 1006.9 |
| 20260508070110 | 44 | 217 | 0.0 | 1.0 | 0.00 | 0.00 | 0.00 | 54 | 1006.9 |
| 20260508065606 | 44 | 210 | 0.0 | 1.0 | 0.00 | 0.00 | 0.00 | 53 | 1006.8 |
| 20260508065104 | 44 | 213 | 0.0 | 1.0 | 0.00 | 0.00 | 0.00 | 53 | 1007.0 |
| 20260508064602 | 42 | 215 | 1.0 | 1.0 | 0.00 | 0.00 | 0.00 | 55 | 1007.0 |
| 20260508064100 | 41 | 197 | 1.0 | 1.0 | 0.00 | 0.00 | 0.00 | 62 | 1007.0 |
| 20260508063556 | 41 | 201 | 0.0 | 0.0 | 0.00 | 0.00 | 0.00 | 61 | 1007.0 |
| 20260508063055 | 41 | 201 | 0.0 | 1.0 | 0.00 | 0.00 | 0.00 | 65 | 1007.0 |
| 20260508062552 | 41 | 199 | 0.0 | 1.0 | 0.00 | 0.00 | 0.00 | 65 | 1007.2 |
| 20260508062048 | 42 | 206 | 0.0 | 0.0 | 0.00 | 0.00 | 0.00 | 63 | 1007.0 |
| 20260508061546 | 42 | 197 | 0.0 | 1.0 | 0.00 | 0.00 | 0.00 | 60 | 1007.0 |
| 20260508061043 | 41 | 211 | 0.0 | 0.0 | 0.00 | 0.00 | 0.00 | 60 | 1007.2 |
| 20260508060540 | 40 | 205 | 1.0 | 1.0 | 0.00 | 0.00 | 0.00 | 68 | 1007.1 |
| 20260508060037 | 40 | 206 | 0.0 | 0.0 | 0.00 | 0.00 | 0.00 | 67 | 1007.4 |
| 20260508055532 | 40 | 201 | 0.0 | 0.0 | 0.00 | 0.00 | 0.00 | 68 | 1007.3 |